Terminal Aerodrome Forecast
Issued by NWS

Home | Current Version | Previous Version | Text Only | Print | Product List | Glossary On
Versions: 1 2 3 4 5 6 7 8 9 10 11 12 13
000
FTUS45 KGJT 051724
TAFTEX
TAF
KTEX 051724Z 0518/0618 09007KT P6SM SCT250
     FM052100 17011G20KT P6SM BKN250
     FM060600 15016G25KT P6SM VCSH BKN090
     FM060900 12011KT P6SM VCSH BKN250
     FM061100 16006KT P6SM BKN250=

USA.gov is the U.S. government's official web portal to all federal, state and local government web resources and services.